sensor_id;sensor_type;location;lat;lon;timestamp;P1;durP1;ratioP1;P2;durP2;ratioP2
66012;SDS011;52783;50.502;8.190;2022-12-05T00:00:50;36.20;;;14.30;;
66012;SDS011;52783;50.502;8.190;2022-12-05T00:03:17;34.72;;;14.05;;
66012;SDS011;52783;50.502;8.190;2022-12-05T00:05:43;34.92;;;15.88;;
66012;SDS011;52783;50.502;8.190;2022-12-05T00:08:08;36.97;;;15.35;;
66012;SDS011;52783;50.502;8.190;2022-12-05T00:10:37;25.08;;;12.88;;
66012;SDS011;52783;50.502;8.190;2022-12-05T00:13:04;30.42;;;13.45;;
66012;SDS011;52783;50.502;8.190;2022-12-05T00:15:29;30.38;;;14.48;;
66012;SDS011;52783;50.502;8.190;2022-12-05T00:17:55;31.95;;;13.90;;
66012;SDS011;52783;50.502;8.190;2022-12-05T00:20:21;29.42;;;12.75;;
66012;SDS011;52783;50.502;8.190;2022-12-05T00:22:46;29.52;;;13.85;;
66012;SDS011;52783;50.502;8.190;2022-12-05T00:25:12;29.00;;;13.07;;
66012;SDS011;52783;50.502;8.190;2022-12-05T00:27:37;24.40;;;12.85;;
66012;SDS011;52783;50.502;8.190;2022-12-05T00:30:03;32.75;;;13.15;;
66012;SDS011;52783;50.502;8.190;2022-12-05T00:32:32;25.02;;;12.63;;
66012;SDS011;52783;50.502;8.190;2022-12-05T00:34:57;23.85;;;11.95;;
66012;SDS011;52783;50.502;8.190;2022-12-05T00:37:23;28.23;;;13.38;;
66012;SDS011;52783;50.502;8.190;2022-12-05T00:39:49;31.50;;;13.63;;
66012;SDS011;52783;50.502;8.190;2022-12-05T00:42:14;27.60;;;12.73;;
66012;SDS011;52783;50.502;8.190;2022-12-05T00:44:40;23.40;;;11.57;;
66012;SDS011;52783;50.502;8.190;2022-12-05T00:47:06;18.98;;;11.00;;
66012;SDS011;52783;50.502;8.190;2022-12-05T00:49:32;24.10;;;12.40;;
66012;SDS011;52783;50.502;8.190;2022-12-05T00:51:57;23.73;;;12.75;;
66012;SDS011;52783;50.502;8.190;2022-12-05T00:54:23;22.48;;;12.00;;
66012;SDS011;52783;50.502;8.190;2022-12-05T00:56:48;22.95;;;11.25;;
66012;SDS011;52783;50.502;8.190;2022-12-05T00:59:17;21.13;;;10.75;;
66012;SDS011;52783;50.502;8.190;2022-12-05T01:01:44;20.55;;;10.73;;
66012;SDS011;52783;50.502;8.190;2022-12-05T01:04:21;24.92;;;11.80;;
66012;SDS011;52783;50.502;8.190;2022-12-05T01:06:48;21.58;;;10.93;;
66012;SDS011;52783;50.502;8.190;2022-12-05T01:09:16;22.42;;;10.80;;
66012;SDS011;52783;50.502;8.190;2022-12-05T01:11:44;21.15;;;10.32;;
66012;SDS011;52783;50.502;8.190;2022-12-05T01:14:10;19.50;;;11.02;;
66012;SDS011;52783;50.502;8.190;2022-12-05T01:16:38;22.17;;;10.60;;
66012;SDS011;52783;50.502;8.190;2022-12-05T01:19:06;28.38;;;11.32;;
66012;SDS011;52783;50.502;8.190;2022-12-05T01:21:37;21.75;;;10.27;;
66012;SDS011;52783;50.502;8.190;2022-12-05T01:24:03;24.42;;;10.95;;
66012;SDS011;52783;50.502;8.190;2022-12-05T01:26:29;25.80;;;10.95;;
66012;SDS011;52783;50.502;8.190;2022-12-05T01:28:54;18.35;;;10.38;;
66012;SDS011;52783;50.502;8.190;2022-12-05T01:33:46;23.33;;;10.35;;
66012;SDS011;52783;50.502;8.190;2022-12-05T01:36:12;20.55;;;9.55;;
66012;SDS011;52783;50.502;8.190;2022-12-05T01:38:38;17.88;;;10.10;;
66012;SDS011;52783;50.502;8.190;2022-12-05T01:41:05;22.33;;;10.75;;
66012;SDS011;52783;50.502;8.190;2022-12-05T01:43:32;22.90;;;11.98;;
66012;SDS011;52783;50.502;8.190;2022-12-05T01:45:57;23.23;;;11.75;;
66012;SDS011;52783;50.502;8.190;2022-12-05T01:48:27;21.73;;;11.35;;
66012;SDS011;52783;50.502;8.190;2022-12-05T01:50:59;18.50;;;10.50;;
66012;SDS011;52783;50.502;8.190;2022-12-05T01:53:25;23.65;;;11.18;;
66012;SDS011;52783;50.502;8.190;2022-12-05T01:55:52;20.35;;;10.25;;
66012;SDS011;52783;50.502;8.190;2022-12-05T01:58:19;19.23;;;10.50;;
66012;SDS011;52783;50.502;8.190;2022-12-05T02:00:45;24.13;;;11.25;;
66012;SDS011;52783;50.502;8.190;2022-12-05T02:03:14;22.60;;;11.32;;
66012;SDS011;52783;50.502;8.190;2022-12-05T02:05:47;18.65;;;10.45;;
66012;SDS011;52783;50.502;8.190;2022-12-05T02:08:16;19.83;;;10.95;;
66012;SDS011;52783;50.502;8.190;2022-12-05T02:10:46;21.55;;;11.23;;
66012;SDS011;52783;50.502;8.190;2022-12-05T02:13:22;21.67;;;11.02;;
66012;SDS011;52783;50.502;8.190;2022-12-05T02:16:17;19.67;;;10.75;;
66012;SDS011;52783;50.502;8.190;2022-12-05T02:19:12;20.15;;;10.40;;
66012;SDS011;52783;50.502;8.190;2022-12-05T02:30:22;21.70;;;10.00;;
66012;SDS011;52783;50.502;8.190;2022-12-05T02:33:06;18.88;;;9.55;;
66012;SDS011;52783;50.502;8.190;2022-12-05T02:41:31;20.63;;;10.43;;
66012;SDS011;52783;50.502;8.190;2022-12-05T02:44:43;17.60;;;10.15;;
66012;SDS011;52783;50.502;8.190;2022-12-05T02:47:15;20.17;;;10.60;;
66012;SDS011;52783;50.502;8.190;2022-12-05T02:49:45;18.50;;;9.88;;
66012;SDS011;52783;50.502;8.190;2022-12-05T02:52:12;17.90;;;10.35;;
66012;SDS011;52783;50.502;8.190;2022-12-05T02:54:41;20.83;;;10.55;;
66012;SDS011;52783;50.502;8.190;2022-12-05T02:57:10;15.35;;;9.40;;
66012;SDS011;52783;50.502;8.190;2022-12-05T02:59:37;17.50;;;9.77;;
66012;SDS011;52783;50.502;8.190;2022-12-05T03:02:03;20.70;;;10.90;;
66012;SDS011;52783;50.502;8.190;2022-12-05T03:04:28;17.58;;;9.85;;
66012;SDS011;52783;50.502;8.190;2022-12-05T03:06:59;18.75;;;9.65;;
66012;SDS011;52783;50.502;8.190;2022-12-05T03:09:38;24.73;;;10.35;;
66012;SDS011;52783;50.502;8.190;2022-12-05T03:12:12;19.77;;;9.73;;
66012;SDS011;52783;50.502;8.190;2022-12-05T03:14:54;17.75;;;9.50;;
66012;SDS011;52783;50.502;8.190;2022-12-05T03:17:31;19.38;;;9.70;;
66012;SDS011;52783;50.502;8.190;2022-12-05T03:20:06;18.27;;;9.88;;
66012;SDS011;52783;50.502;8.190;2022-12-05T03:22:43;19.55;;;9.90;;
66012;SDS011;52783;50.502;8.190;2022-12-05T03:25:12;16.92;;;9.85;;
66012;SDS011;52783;50.502;8.190;2022-12-05T03:27:48;17.83;;;9.88;;
66012;SDS011;52783;50.502;8.190;2022-12-05T03:30:24;15.75;;;9.25;;
66012;SDS011;52783;50.502;8.190;2022-12-05T03:38:15;15.85;;;9.15;;
66012;SDS011;52783;50.502;8.190;2022-12-05T03:40:50;15.45;;;9.45;;
66012;SDS011;52783;50.502;8.190;2022-12-05T03:43:42;17.40;;;9.23;;
66012;SDS011;52783;50.502;8.190;2022-12-05T03:49:14;14.82;;;9.02;;
66012;SDS011;52783;50.502;8.190;2022-12-05T03:51:51;19.10;;;9.52;;
66012;SDS011;52783;50.502;8.190;2022-12-05T03:54:22;19.60;;;9.95;;
66012;SDS011;52783;50.502;8.190;2022-12-05T03:57:01;18.67;;;10.18;;
66012;SDS011;52783;50.502;8.190;2022-12-05T03:59:33;18.13;;;9.57;;
66012;SDS011;52783;50.502;8.190;2022-12-05T04:02:14;21.40;;;10.27;;
66012;SDS011;52783;50.502;8.190;2022-12-05T04:05:05;21.50;;;10.75;;
66012;SDS011;52783;50.502;8.190;2022-12-05T04:07:34;18.00;;;10.27;;
66012;SDS011;52783;50.502;8.190;2022-12-05T04:10:04;20.50;;;10.38;;
66012;SDS011;52783;50.502;8.190;2022-12-05T04:12:38;15.75;;;9.25;;
66012;SDS011;52783;50.502;8.190;2022-12-05T04:15:16;19.98;;;10.38;;
66012;SDS011;52783;50.502;8.190;2022-12-05T04:17:49;19.77;;;9.82;;
66012;SDS011;52783;50.502;8.190;2022-12-05T04:20:27;24.35;;;10.40;;
66012;SDS011;52783;50.502;8.190;2022-12-05T04:23:15;24.13;;;11.45;;
66012;SDS011;52783;50.502;8.190;2022-12-05T04:26:03;28.27;;;10.73;;
66012;SDS011;52783;50.502;8.190;2022-12-05T04:28:47;29.83;;;12.18;;
66012;SDS011;52783;50.502;8.190;2022-12-05T04:31:24;25.23;;;11.00;;
66012;SDS011;52783;50.502;8.190;2022-12-05T04:33:54;23.00;;;11.35;;
66012;SDS011;52783;50.502;8.190;2022-12-05T04:39:08;29.42;;;12.07;;
66012;SDS011;52783;50.502;8.190;2022-12-05T04:41:46;27.75;;;11.60;;
66012;SDS011;52783;50.502;8.190;2022-12-05T04:44:16;27.73;;;10.43;;
66012;SDS011;52783;50.502;8.190;2022-12-05T04:46:47;26.55;;;10.68;;
66012;SDS011;52783;50.502;8.190;2022-12-05T04:49:16;28.75;;;13.73;;
66012;SDS011;52783;50.502;8.190;2022-12-05T04:51:46;21.23;;;11.02;;
66012;SDS011;52783;50.502;8.190;2022-12-05T04:54:19;26.73;;;11.15;;
66012;SDS011;52783;50.502;8.190;2022-12-05T04:56:49;22.33;;;11.15;;
66012;SDS011;52783;50.502;8.190;2022-12-05T04:59:18;26.75;;;11.77;;
66012;SDS011;52783;50.502;8.190;2022-12-05T05:01:47;23.33;;;11.90;;
66012;SDS011;52783;50.502;8.190;2022-12-05T05:04:33;26.48;;;11.88;;
66012;SDS011;52783;50.502;8.190;2022-12-05T05:07:05;20.58;;;10.82;;
66012;SDS011;52783;50.502;8.190;2022-12-05T05:09:33;26.27;;;11.20;;
66012;SDS011;52783;50.502;8.190;2022-12-05T05:11:59;22.65;;;11.35;;
66012;SDS011;52783;50.502;8.190;2022-12-05T05:14:25;23.95;;;11.27;;
66012;SDS011;52783;50.502;8.190;2022-12-05T05:16:51;25.63;;;12.02;;
66012;SDS011;52783;50.502;8.190;2022-12-05T05:19:22;26.13;;;11.82;;
66012;SDS011;52783;50.502;8.190;2022-12-05T05:24:34;30.42;;;12.45;;
66012;SDS011;52783;50.502;8.190;2022-12-05T05:27:00;25.13;;;11.10;;
66012;SDS011;52783;50.502;8.190;2022-12-05T05:29:25;24.30;;;11.73;;
66012;SDS011;52783;50.502;8.190;2022-12-05T05:31:51;28.00;;;11.80;;
66012;SDS011;52783;50.502;8.190;2022-12-05T05:34:16;22.48;;;11.45;;
66012;SDS011;52783;50.502;8.190;2022-12-05T05:36:42;23.70;;;10.93;;
66012;SDS011;52783;50.502;8.190;2022-12-05T05:39:10;26.83;;;12.60;;
66012;SDS011;52783;50.502;8.190;2022-12-05T05:41:37;27.13;;;11.98;;
66012;SDS011;52783;50.502;8.190;2022-12-05T05:44:03;27.50;;;12.07;;
66012;SDS011;52783;50.502;8.190;2022-12-05T05:46:29;32.15;;;13.60;;
66012;SDS011;52783;50.502;8.190;2022-12-05T05:48:56;28.80;;;14.13;;
66012;SDS011;52783;50.502;8.190;2022-12-05T05:51:22;25.55;;;11.88;;
66012;SDS011;52783;50.502;8.190;2022-12-05T05:53:51;23.90;;;11.55;;
66012;SDS011;52783;50.502;8.190;2022-12-05T05:56:18;30.65;;;11.75;;
66012;SDS011;52783;50.502;8.190;2022-12-05T05:58:44;24.70;;;11.35;;
66012;SDS011;52783;50.502;8.190;2022-12-05T06:01:14;25.42;;;11.15;;
66012;SDS011;52783;50.502;8.190;2022-12-05T06:03:42;26.50;;;11.65;;
66012;SDS011;52783;50.502;8.190;2022-12-05T06:06:09;25.83;;;11.52;;
66012;SDS011;52783;50.502;8.190;2022-12-05T06:08:37;22.67;;;9.77;;
66012;SDS011;52783;50.502;8.190;2022-12-05T06:11:04;26.02;;;12.10;;
66012;SDS011;52783;50.502;8.190;2022-12-05T06:13:34;24.65;;;11.73;;
66012;SDS011;52783;50.502;8.190;2022-12-05T06:16:00;23.85;;;11.00;;
66012;SDS011;52783;50.502;8.190;2022-12-05T06:18:26;23.67;;;10.95;;
66012;SDS011;52783;50.502;8.190;2022-12-05T06:20:55;25.77;;;10.50;;
66012;SDS011;52783;50.502;8.190;2022-12-05T06:23:22;29.95;;;11.00;;
66012;SDS011;52783;50.502;8.190;2022-12-05T06:25:49;24.20;;;10.52;;
66012;SDS011;52783;50.502;8.190;2022-12-05T06:28:15;25.35;;;11.32;;
66012;SDS011;52783;50.502;8.190;2022-12-05T06:30:42;32.38;;;10.98;;
66012;SDS011;52783;50.502;8.190;2022-12-05T06:33:08;33.42;;;11.40;;
66012;SDS011;52783;50.502;8.190;2022-12-05T06:35:33;26.10;;;11.82;;
66012;SDS011;52783;50.502;8.190;2022-12-05T06:37:59;26.15;;;11.55;;
66012;SDS011;52783;50.502;8.190;2022-12-05T06:40:24;26.65;;;11.43;;
66012;SDS011;52783;50.502;8.190;2022-12-05T06:42:50;30.67;;;11.55;;
66012;SDS011;52783;50.502;8.190;2022-12-05T06:45:16;22.58;;;11.02;;
66012;SDS011;52783;50.502;8.190;2022-12-05T06:47:41;22.75;;;10.77;;
66012;SDS011;52783;50.502;8.190;2022-12-05T06:50:07;25.90;;;10.07;;
66012;SDS011;52783;50.502;8.190;2022-12-05T06:52:33;30.67;;;10.77;;
66012;SDS011;52783;50.502;8.190;2022-12-05T06:54:59;26.42;;;10.10;;
66012;SDS011;52783;50.502;8.190;2022-12-05T06:57:24;34.05;;;10.77;;
66012;SDS011;52783;50.502;8.190;2022-12-05T06:59:52;32.45;;;10.07;;
66012;SDS011;52783;50.502;8.190;2022-12-05T07:02:37;22.02;;;10.23;;
66012;SDS011;52783;50.502;8.190;2022-12-05T07:05:05;22.77;;;10.48;;
66012;SDS011;52783;50.502;8.190;2022-12-05T07:07:31;21.00;;;9.48;;
66012;SDS011;52783;50.502;8.190;2022-12-05T07:09:57;31.17;;;11.10;;
66012;SDS011;52783;50.502;8.190;2022-12-05T07:12:23;28.35;;;10.95;;
66012;SDS011;52783;50.502;8.190;2022-12-05T07:14:48;27.60;;;11.48;;
66012;SDS011;52783;50.502;8.190;2022-12-05T07:17:14;37.67;;;11.50;;
66012;SDS011;52783;50.502;8.190;2022-12-05T07:19:40;34.28;;;10.60;;
66012;SDS011;52783;50.502;8.190;2022-12-05T07:22:05;31.55;;;11.63;;
66012;SDS011;52783;50.502;8.190;2022-12-05T07:24:31;27.90;;;11.40;;
66012;SDS011;52783;50.502;8.190;2022-12-05T07:26:56;44.97;;;11.00;;
66012;SDS011;52783;50.502;8.190;2022-12-05T07:29:22;54.28;;;11.13;;
66012;SDS011;52783;50.502;8.190;2022-12-05T07:31:47;23.15;;;10.60;;
66012;SDS011;52783;50.502;8.190;2022-12-05T07:34:13;41.92;;;11.35;;
66012;SDS011;52783;50.502;8.190;2022-12-05T07:36:38;156.18;;;18.55;;
66012;SDS011;52783;50.502;8.190;2022-12-05T07:39:04;127.20;;;20.00;;
66012;SDS011;52783;50.502;8.190;2022-12-05T07:41:30;121.65;;;13.63;;
66012;SDS011;52783;50.502;8.190;2022-12-05T07:43:58;200.13;;;14.35;;
66012;SDS011;52783;50.502;8.190;2022-12-05T07:46:25;184.02;;;13.50;;
66012;SDS011;52783;50.502;8.190;2022-12-05T07:48:52;37.03;;;11.43;;
66012;SDS011;52783;50.502;8.190;2022-12-05T07:51:18;41.35;;;11.93;;
66012;SDS011;52783;50.502;8.190;2022-12-05T07:53:44;43.13;;;11.48;;
66012;SDS011;52783;50.502;8.190;2022-12-05T07:56:12;22.00;;;10.60;;
66012;SDS011;52783;50.502;8.190;2022-12-05T07:58:40;25.10;;;11.77;;
66012;SDS011;52783;50.502;8.190;2022-12-05T08:01:07;26.92;;;11.20;;
66012;SDS011;52783;50.502;8.190;2022-12-05T08:03:39;31.35;;;11.77;;
66012;SDS011;52783;50.502;8.190;2022-12-05T08:06:06;24.98;;;11.55;;
66012;SDS011;52783;50.502;8.190;2022-12-05T08:08:35;23.88;;;11.50;;
66012;SDS011;52783;50.502;8.190;2022-12-05T08:11:02;22.13;;;11.63;;
66012;SDS011;52783;50.502;8.190;2022-12-05T08:13:28;24.10;;;11.85;;
66012;SDS011;52783;50.502;8.190;2022-12-05T08:15:54;25.33;;;11.77;;
66012;SDS011;52783;50.502;8.190;2022-12-05T08:18:20;24.90;;;11.65;;
66012;SDS011;52783;50.502;8.190;2022-12-05T08:20:45;27.38;;;12.55;;
66012;SDS011;52783;50.502;8.190;2022-12-05T08:23:11;28.02;;;12.75;;
66012;SDS011;52783;50.502;8.190;2022-12-05T08:25:36;28.10;;;13.10;;
66012;SDS011;52783;50.502;8.190;2022-12-05T08:28:02;28.65;;;12.52;;
66012;SDS011;52783;50.502;8.190;2022-12-05T08:30:27;28.95;;;12.90;;
66012;SDS011;52783;50.502;8.190;2022-12-05T08:32:53;28.27;;;12.57;;
66012;SDS011;52783;50.502;8.190;2022-12-05T08:35:18;26.63;;;11.50;;
66012;SDS011;52783;50.502;8.190;2022-12-05T08:37:44;20.63;;;11.23;;
66012;SDS011;52783;50.502;8.190;2022-12-05T08:40:09;28.95;;;11.68;;
66012;SDS011;52783;50.502;8.190;2022-12-05T08:42:35;21.58;;;11.05;;
66012;SDS011;52783;50.502;8.190;2022-12-05T08:45:01;26.75;;;11.05;;
66012;SDS011;52783;50.502;8.190;2022-12-05T08:47:27;17.80;;;10.70;;
66012;SDS011;52783;50.502;8.190;2022-12-05T08:49:53;18.50;;;10.13;;
66012;SDS011;52783;50.502;8.190;2022-12-05T08:52:18;19.83;;;10.80;;
66012;SDS011;52783;50.502;8.190;2022-12-05T08:54:45;27.70;;;14.65;;
66012;SDS011;52783;50.502;8.190;2022-12-05T08:57:11;36.20;;;16.90;;
66012;SDS011;52783;50.502;8.190;2022-12-05T08:59:36;38.13;;;16.80;;
66012;SDS011;52783;50.502;8.190;2022-12-05T09:02:02;25.73;;;15.30;;
66012;SDS011;52783;50.502;8.190;2022-12-05T09:04:28;29.63;;;13.65;;
66012;SDS011;52783;50.502;8.190;2022-12-05T09:06:53;20.75;;;11.80;;
66012;SDS011;52783;50.502;8.190;2022-12-05T09:09:19;21.33;;;10.45;;
66012;SDS011;52783;50.502;8.190;2022-12-05T09:11:44;24.85;;;11.15;;
66012;SDS011;52783;50.502;8.190;2022-12-05T09:14:12;19.23;;;9.75;;
66012;SDS011;52783;50.502;8.190;2022-12-05T09:16:39;18.35;;;10.15;;
66012;SDS011;52783;50.502;8.190;2022-12-05T09:19:12;19.30;;;9.25;;
66012;SDS011;52783;50.502;8.190;2022-12-05T09:21:42;18.83;;;9.98;;
66012;SDS011;52783;50.502;8.190;2022-12-05T09:24:09;20.40;;;11.05;;
66012;SDS011;52783;50.502;8.190;2022-12-05T09:26:35;20.25;;;10.48;;
66012;SDS011;52783;50.502;8.190;2022-12-05T09:29:01;18.35;;;9.63;;
66012;SDS011;52783;50.502;8.190;2022-12-05T09:31:27;17.77;;;9.43;;
66012;SDS011;52783;50.502;8.190;2022-12-05T09:33:54;17.30;;;9.52;;
66012;SDS011;52783;50.502;8.190;2022-12-05T09:36:29;16.27;;;9.38;;
66012;SDS011;52783;50.502;8.190;2022-12-05T09:38:59;16.85;;;8.70;;
66012;SDS011;52783;50.502;8.190;2022-12-05T09:49:52;17.77;;;9.23;;
66012;SDS011;52783;50.502;8.190;2022-12-05T09:53:08;16.42;;;9.45;;
66012;SDS011;52783;50.502;8.190;2022-12-05T09:55:38;19.83;;;9.60;;
66012;SDS011;52783;50.502;8.190;2022-12-05T09:58:13;17.10;;;9.98;;
66012;SDS011;52783;50.502;8.190;2022-12-05T10:00:44;17.25;;;9.07;;
66012;SDS011;52783;50.502;8.190;2022-12-05T10:03:28;22.23;;;10.05;;
66012;SDS011;52783;50.502;8.190;2022-12-05T10:06:05;18.13;;;10.02;;
66012;SDS011;52783;50.502;8.190;2022-12-05T10:08:55;21.50;;;10.45;;
66012;SDS011;52783;50.502;8.190;2022-12-05T10:11:49;25.45;;;10.80;;
66012;SDS011;52783;50.502;8.190;2022-12-05T10:14:42;24.48;;;11.25;;
66012;SDS011;52783;50.502;8.190;2022-12-05T10:17:32;27.20;;;10.57;;
66012;SDS011;52783;50.502;8.190;2022-12-05T10:20:01;19.58;;;10.48;;
66012;SDS011;52783;50.502;8.190;2022-12-05T10:25:12;24.38;;;12.02;;
66012;SDS011;52783;50.502;8.190;2022-12-05T10:27:44;26.77;;;11.90;;
66012;SDS011;52783;50.502;8.190;2022-12-05T10:30:17;25.85;;;12.27;;
66012;SDS011;52783;50.502;8.190;2022-12-05T10:35:22;24.92;;;12.27;;
66012;SDS011;52783;50.502;8.190;2022-12-05T10:37:58;25.88;;;12.73;;
66012;SDS011;52783;50.502;8.190;2022-12-05T10:40:36;29.50;;;11.95;;
66012;SDS011;52783;50.502;8.190;2022-12-05T10:43:04;24.55;;;10.90;;
66012;SDS011;52783;50.502;8.190;2022-12-05T10:45:32;20.65;;;10.75;;
66012;SDS011;52783;50.502;8.190;2022-12-05T10:48:03;21.77;;;10.93;;
66012;SDS011;52783;50.502;8.190;2022-12-05T10:50:32;23.35;;;11.05;;
66012;SDS011;52783;50.502;8.190;2022-12-05T10:53:02;23.80;;;10.93;;
66012;SDS011;52783;50.502;8.190;2022-12-05T10:55:33;24.90;;;11.55;;
66012;SDS011;52783;50.502;8.190;2022-12-05T10:58:34;27.88;;;12.98;;
66012;SDS011;52783;50.502;8.190;2022-12-05T11:00:54;20.63;;;10.82;;
66012;SDS011;52783;50.502;8.190;2022-12-05T11:05:51;32.08;;;13.05;;
66012;SDS011;52783;50.502;8.190;2022-12-05T11:08:39;26.30;;;12.63;;
66012;SDS011;52783;50.502;8.190;2022-12-05T11:11:04;24.05;;;12.10;;
66012;SDS011;52783;50.502;8.190;2022-12-05T11:13:33;28.02;;;13.65;;
66012;SDS011;52783;50.502;8.190;2022-12-05T11:15:59;25.02;;;12.15;;
66012;SDS011;52783;50.502;8.190;2022-12-05T11:18:29;24.33;;;11.75;;
66012;SDS011;52783;50.502;8.190;2022-12-05T11:21:09;23.25;;;11.77;;
66012;SDS011;52783;50.502;8.190;2022-12-05T11:23:36;18.67;;;11.05;;
66012;SDS011;52783;50.502;8.190;2022-12-05T11:26:03;21.42;;;11.02;;
66012;SDS011;52783;50.502;8.190;2022-12-05T11:28:36;19.15;;;10.13;;
66012;SDS011;52783;50.502;8.190;2022-12-05T11:31:10;16.48;;;9.95;;
66012;SDS011;52783;50.502;8.190;2022-12-05T11:33:57;25.92;;;9.38;;
66012;SDS011;52783;50.502;8.190;2022-12-05T11:36:36;14.48;;;9.32;;
66012;SDS011;52783;50.502;8.190;2022-12-05T11:39:08;18.45;;;9.80;;
66012;SDS011;52783;50.502;8.190;2022-12-05T11:50:04;18.10;;;9.65;;
66012;SDS011;52783;50.502;8.190;2022-12-05T11:53:18;16.25;;;8.43;;
66012;SDS011;52783;50.502;8.190;2022-12-05T11:55:42;17.17;;;8.25;;
66012;SDS011;52783;50.502;8.190;2022-12-05T11:58:40;16.52;;;8.98;;
66012;SDS011;52783;50.502;8.190;2022-12-05T12:01:19;17.65;;;9.98;;
66012;SDS011;52783;50.502;8.190;2022-12-05T12:12:59;20.20;;;9.35;;
66012;SDS011;52783;50.502;8.190;2022-12-05T12:15:50;20.55;;;9.98;;
66012;SDS011;52783;50.502;8.190;2022-12-05T12:29:14;19.92;;;10.02;;
66012;SDS011;52783;50.502;8.190;2022-12-05T12:35:00;15.20;;;8.68;;
66012;SDS011;52783;50.502;8.190;2022-12-05T12:37:48;20.23;;;9.43;;
66012;SDS011;52783;50.502;8.190;2022-12-05T12:40:34;18.10;;;8.85;;
66012;SDS011;52783;50.502;8.190;2022-12-05T12:43:27;15.02;;;9.52;;
66012;SDS011;52783;50.502;8.190;2022-12-05T12:46:27;17.10;;;9.27;;
66012;SDS011;52783;50.502;8.190;2022-12-05T12:49:01;19.85;;;9.75;;
66012;SDS011;52783;50.502;8.190;2022-12-05T12:51:52;16.40;;;10.27;;
66012;SDS011;52783;50.502;8.190;2022-12-05T12:54:34;18.33;;;10.57;;
66012;SDS011;52783;50.502;8.190;2022-12-05T13:05:38;20.60;;;10.77;;
66012;SDS011;52783;50.502;8.190;2022-12-05T13:08:12;21.17;;;11.18;;
66012;SDS011;52783;50.502;8.190;2022-12-05T13:10:44;19.85;;;10.40;;
66012;SDS011;52783;50.502;8.190;2022-12-05T13:13:13;21.70;;;11.70;;
66012;SDS011;52783;50.502;8.190;2022-12-05T13:18:15;21.63;;;11.55;;
66012;SDS011;52783;50.502;8.190;2022-12-05T13:20:43;19.95;;;11.60;;
66012;SDS011;52783;50.502;8.190;2022-12-05T13:23:17;19.17;;;10.73;;
66012;SDS011;52783;50.502;8.190;2022-12-05T13:25:45;19.30;;;10.05;;
66012;SDS011;52783;50.502;8.190;2022-12-05T13:30:47;18.02;;;9.48;;
66012;SDS011;52783;50.502;8.190;2022-12-05T13:33:30;19.30;;;11.20;;
66012;SDS011;52783;50.502;8.190;2022-12-05T13:36:06;19.17;;;10.43;;
66012;SDS011;52783;50.502;8.190;2022-12-05T13:39:02;19.10;;;10.35;;
66012;SDS011;52783;50.502;8.190;2022-12-05T13:41:50;17.52;;;10.13;;
66012;SDS011;52783;50.502;8.190;2022-12-05T13:44:37;18.48;;;10.82;;
66012;SDS011;52783;50.502;8.190;2022-12-05T13:47:05;18.63;;;9.43;;
66012;SDS011;52783;50.502;8.190;2022-12-05T13:49:46;17.98;;;9.95;;
66012;SDS011;52783;50.502;8.190;2022-12-05T13:52:19;20.20;;;12.20;;
66012;SDS011;52783;50.502;8.190;2022-12-05T13:55:03;28.75;;;12.98;;
66012;SDS011;52783;50.502;8.190;2022-12-05T13:57:53;18.65;;;10.70;;
66012;SDS011;52783;50.502;8.190;2022-12-05T14:02:49;26.30;;;10.82;;
66012;SDS011;52783;50.502;8.190;2022-12-05T14:07:45;16.25;;;10.73;;
66012;SDS011;52783;50.502;8.190;2022-12-05T14:10:12;17.75;;;9.35;;
66012;SDS011;52783;50.502;8.190;2022-12-05T14:13:02;13.40;;;8.88;;
66012;SDS011;52783;50.502;8.190;2022-12-05T14:15:45;18.60;;;8.48;;
66012;SDS011;52783;50.502;8.190;2022-12-05T14:26:16;26.15;;;15.60;;
66012;SDS011;52783;50.502;8.190;2022-12-05T14:28:51;17.10;;;10.25;;
66012;SDS011;52783;50.502;8.190;2022-12-05T14:31:51;14.55;;;9.75;;
66012;SDS011;52783;50.502;8.190;2022-12-05T14:37:35;17.00;;;10.13;;
66012;SDS011;52783;50.502;8.190;2022-12-05T14:42:56;19.42;;;11.55;;
66012;SDS011;52783;50.502;8.190;2022-12-05T14:45:43;15.00;;;9.32;;
66012;SDS011;52783;50.502;8.190;2022-12-05T14:50:55;16.52;;;10.90;;
66012;SDS011;52783;50.502;8.190;2022-12-05T15:04:29;15.45;;;8.43;;
66012;SDS011;52783;50.502;8.190;2022-12-05T15:06:51;15.23;;;9.30;;
66012;SDS011;52783;50.502;8.190;2022-12-05T15:12:05;15.02;;;7.95;;
66012;SDS011;52783;50.502;8.190;2022-12-05T15:14:41;13.82;;;7.68;;
66012;SDS011;52783;50.502;8.190;2022-12-05T15:17:11;12.77;;;8.18;;
66012;SDS011;52783;50.502;8.190;2022-12-05T15:19:44;13.90;;;8.40;;
66012;SDS011;52783;50.502;8.190;2022-12-05T15:22:24;15.07;;;7.90;;
66012;SDS011;52783;50.502;8.190;2022-12-05T15:24:52;16.70;;;8.32;;
66012;SDS011;52783;50.502;8.190;2022-12-05T15:27:17;13.40;;;7.85;;
66012;SDS011;52783;50.502;8.190;2022-12-05T15:29:44;15.13;;;8.82;;
66012;SDS011;52783;50.502;8.190;2022-12-05T15:42:44;17.90;;;8.50;;
66012;SDS011;52783;50.502;8.190;2022-12-05T15:47:44;15.73;;;8.40;;
66012;SDS011;52783;50.502;8.190;2022-12-05T15:50:29;13.98;;;8.45;;
66012;SDS011;52783;50.502;8.190;2022-12-05T15:55:47;15.43;;;8.82;;
66012;SDS011;52783;50.502;8.190;2022-12-05T15:58:35;21.98;;;10.45;;
66012;SDS011;52783;50.502;8.190;2022-12-05T16:01:12;20.20;;;11.43;;
66012;SDS011;52783;50.502;8.190;2022-12-05T16:06:41;20.95;;;10.02;;
66012;SDS011;52783;50.502;8.190;2022-12-05T16:09:19;19.45;;;10.45;;
66012;SDS011;52783;50.502;8.190;2022-12-05T16:14:20;16.60;;;10.07;;
66012;SDS011;52783;50.502;8.190;2022-12-05T16:16:48;15.40;;;9.52;;
66012;SDS011;52783;50.502;8.190;2022-12-05T16:19:20;17.58;;;9.80;;
66012;SDS011;52783;50.502;8.190;2022-12-05T16:22:07;14.98;;;9.60;;
66012;SDS011;52783;50.502;8.190;2022-12-05T16:24:41;18.00;;;9.30;;
66012;SDS011;52783;50.502;8.190;2022-12-05T16:32:35;14.32;;;7.60;;
66012;SDS011;52783;50.502;8.190;2022-12-05T16:35:02;16.10;;;9.27;;
66012;SDS011;52783;50.502;8.190;2022-12-05T16:37:28;15.35;;;8.77;;
66012;SDS011;52783;50.502;8.190;2022-12-05T16:39:54;20.83;;;9.45;;
66012;SDS011;52783;50.502;8.190;2022-12-05T16:42:24;27.58;;;10.25;;
66012;SDS011;52783;50.502;8.190;2022-12-05T16:44:57;15.13;;;8.80;;
66012;SDS011;52783;50.502;8.190;2022-12-05T16:52:45;15.75;;;8.60;;
66012;SDS011;52783;50.502;8.190;2022-12-05T16:55:11;17.50;;;9.40;;
66012;SDS011;52783;50.502;8.190;2022-12-05T16:57:38;18.67;;;11.32;;
66012;SDS011;52783;50.502;8.190;2022-12-05T17:00:04;36.78;;;20.25;;
66012;SDS011;52783;50.502;8.190;2022-12-05T17:02:31;20.02;;;11.40;;
66012;SDS011;52783;50.502;8.190;2022-12-05T17:04:57;18.95;;;10.27;;
66012;SDS011;52783;50.502;8.190;2022-12-05T17:07:26;22.20;;;12.30;;
66012;SDS011;52783;50.502;8.190;2022-12-05T17:09:52;19.02;;;10.02;;
66012;SDS011;52783;50.502;8.190;2022-12-05T17:12:20;15.25;;;8.80;;
66012;SDS011;52783;50.502;8.190;2022-12-05T17:14:47;14.98;;;8.93;;
66012;SDS011;52783;50.502;8.190;2022-12-05T17:17:13;16.65;;;9.25;;
66012;SDS011;52783;50.502;8.190;2022-12-05T17:19:42;15.20;;;8.63;;
66012;SDS011;52783;50.502;8.190;2022-12-05T17:22:09;20.27;;;9.77;;
66012;SDS011;52783;50.502;8.190;2022-12-05T17:24:36;18.67;;;9.48;;
66012;SDS011;52783;50.502;8.190;2022-12-05T17:27:03;18.10;;;8.48;;
66012;SDS011;52783;50.502;8.190;2022-12-05T17:29:30;16.05;;;9.18;;